createdAt,value
2019-03-10T00:01:23.771Z,11.12
2019-03-10T00:03:53.697Z,11.10
2019-03-10T00:06:23.417Z,11.05
2019-03-10T00:08:53.351Z,10.86
2019-03-10T00:11:23.122Z,10.77
2019-03-10T00:13:53.055Z,10.78
2019-03-10T00:16:22.781Z,10.76
2019-03-10T00:18:52.519Z,10.76
2019-03-10T00:21:22.229Z,10.71
2019-03-10T00:23:52.229Z,10.65
2019-03-10T00:26:22.103Z,10.55
2019-03-10T00:28:52.141Z,10.57
2019-03-10T00:31:22.014Z,10.55
2019-03-10T00:33:51.771Z,10.55
2019-03-10T00:36:21.573Z,10.53
2019-03-10T00:39:39.489Z,10.48
2019-03-10T00:42:42.631Z,10.52
2019-03-10T00:45:49.094Z,10.53
2019-03-10T00:49:21.023Z,10.55
2019-03-10T00:52:29.487Z,10.46
2019-03-10T00:54:59.408Z,10.47
2019-03-10T00:57:29.324Z,10.51
2019-03-10T01:00:00.676Z,10.45
2019-03-10T01:02:30.878Z,10.48
2019-03-10T01:05:01.035Z,10.52
2019-03-10T01:07:31.064Z,10.51
2019-03-10T01:10:00.848Z,10.52
2019-03-10T01:12:30.753Z,10.54
2019-03-10T01:15:00.601Z,10.46
2019-03-10T01:17:31.593Z,10.50
2019-03-10T01:20:01.677Z,10.54
2019-03-10T01:22:32.050Z,10.48
2019-03-10T01:25:01.976Z,10.53
2019-03-10T01:27:31.808Z,10.33
2019-03-10T01:30:01.694Z,10.29
2019-03-10T01:33:00.973Z,10.24
2019-03-10T01:35:34.332Z,10.22
2019-03-10T01:38:04.400Z,10.27
2019-03-10T01:40:34.092Z,10.32
2019-03-10T01:43:03.858Z,10.35
2019-03-10T01:45:33.690Z,10.35
2019-03-10T01:48:03.483Z,10.42
2019-03-10T01:50:33.379Z,10.41
2019-03-10T01:53:03.120Z,10.37
2019-03-10T01:55:32.849Z,10.46
2019-03-10T01:58:02.696Z,10.50
2019-03-10T02:00:32.469Z,10.55
2019-03-10T02:03:02.368Z,10.54
2019-03-10T02:05:32.223Z,10.55
2019-03-10T02:08:01.994Z,10.54
2019-03-10T02:10:31.703Z,10.57
2019-03-10T02:13:01.466Z,10.65
2019-03-10T02:15:31.334Z,10.63
2019-03-10T02:18:01.270Z,10.65
2019-03-10T02:20:31.223Z,10.63
2019-03-10T02:23:01.085Z,10.60
2019-03-10T02:25:31.053Z,10.48
2019-03-10T02:28:00.923Z,10.47
2019-03-10T02:30:30.739Z,10.47
2019-03-10T02:33:00.492Z,10.54
2019-03-10T02:35:30.377Z,10.54
2019-03-10T02:38:00.188Z,10.49
2019-03-10T02:40:30.271Z,10.42
2019-03-10T02:43:00.042Z,10.41
2019-03-10T02:45:29.771Z,10.47
2019-03-10T02:47:59.913Z,10.47
2019-03-10T02:50:29.839Z,10.42
2019-03-10T02:53:00.829Z,10.40
2019-03-10T02:55:30.618Z,10.35
2019-03-10T02:58:00.238Z,10.32
2019-03-10T03:00:30.261Z,10.22
2019-03-10T03:03:00.284Z,10.20
2019-03-10T03:05:30.122Z,10.29
2019-03-10T03:08:01.266Z,10.26
2019-03-10T03:10:31.235Z,10.20
2019-03-10T03:13:01.060Z,10.15
2019-03-10T03:15:31.579Z,9.99
2019-03-10T03:18:01.192Z,9.95
2019-03-10T03:20:31.133Z,10.00
2019-03-10T03:23:00.993Z,10.08
2019-03-10T03:25:30.639Z,10.21
2019-03-10T03:28:00.571Z,10.27
2019-03-10T03:30:30.502Z,10.33
2019-03-10T03:33:00.346Z,10.36
2019-03-10T03:35:47.387Z,10.46
2019-03-10T03:38:18.439Z,10.40
2019-03-10T03:40:51.284Z,10.38
2019-03-10T03:43:21.054Z,10.34
2019-03-10T03:45:50.861Z,10.25
2019-03-10T03:48:20.768Z,10.13
2019-03-10T03:50:50.392Z,10.00
2019-03-10T03:53:20.322Z,9.95
2019-03-10T03:55:50.154Z,9.99
2019-03-10T03:58:20.125Z,10.00
2019-03-10T04:00:53.378Z,9.92
2019-03-10T04:03:23.238Z,9.85
2019-03-10T04:05:52.992Z,9.79
2019-03-10T04:08:23.121Z,9.77
2019-03-10T04:10:52.965Z,9.76
2019-03-10T04:13:23.083Z,9.82
2019-03-10T04:15:52.827Z,9.87
2019-03-10T04:18:22.708Z,9.85
2019-03-10T04:20:52.492Z,9.83
2019-03-10T04:23:22.294Z,9.79
2019-03-10T04:25:52.059Z,9.76
2019-03-10T04:28:21.943Z,9.65
2019-03-10T04:30:51.858Z,9.55
2019-03-10T04:33:21.623Z,9.20
2019-03-10T04:35:51.261Z,9.05
2019-03-10T04:38:21.015Z,9.06
2019-03-10T04:40:50.930Z,9.05
2019-03-10T04:43:21.025Z,9.03
2019-03-10T04:45:50.717Z,9.02
2019-03-10T04:48:20.485Z,9.01
2019-03-10T04:50:50.138Z,9.09
2019-03-10T04:53:20.015Z,9.14
2019-03-10T04:56:00.458Z,9.25
2019-03-10T04:58:30.288Z,9.33
2019-03-10T05:01:00.377Z,9.42
2019-03-10T05:03:30.400Z,9.48
2019-03-10T05:06:00.093Z,9.62
2019-03-10T05:08:29.929Z,9.75
2019-03-10T05:10:59.876Z,9.82
2019-03-10T05:13:29.875Z,9.86
2019-03-10T05:15:59.721Z,9.93
2019-03-10T05:18:29.380Z,10.00
2019-03-10T05:20:59.194Z,10.10
2019-03-10T05:23:37.653Z,10.12
2019-03-10T05:26:07.831Z,10.17
2019-03-10T05:28:39.523Z,10.14
2019-03-10T05:31:09.423Z,10.11
2019-03-10T05:33:39.326Z,10.14
2019-03-10T05:36:09.271Z,10.06
2019-03-10T05:38:39.036Z,9.93
2019-03-10T05:41:34.556Z,9.91
2019-03-10T05:44:53.637Z,10.00
2019-03-10T05:47:35.456Z,10.06
2019-03-10T05:50:17.112Z,10.09
2019-03-10T05:53:01.785Z,10.17
2019-03-10T05:56:00.552Z,10.18
2019-03-10T05:59:04.071Z,10.26
2019-03-10T06:02:28.809Z,10.17
2019-03-10T06:05:19.040Z,10.26
2019-03-10T06:08:19.056Z,10.44
2019-03-10T06:11:08.661Z,10.55
2019-03-10T06:14:26.894Z,10.76
2019-03-10T06:17:07.947Z,10.94
2019-03-10T06:20:00.697Z,10.96
2019-03-10T06:22:55.027Z,11.16
2019-03-10T06:26:14.156Z,11.22
2019-03-10T06:29:05.413Z,11.45
2019-03-10T06:35:34.685Z,11.36
2019-03-10T06:41:54.246Z,11.76
2019-03-10T06:44:47.657Z,11.66
2019-03-10T06:47:37.987Z,11.75
2019-03-10T06:50:34.124Z,11.83
2019-03-10T06:56:43.342Z,11.64
2019-03-10T06:59:13.278Z,11.76
2019-03-10T07:01:43.243Z,11.84
2019-03-10T07:04:13.003Z,11.91
2019-03-10T07:06:42.911Z,11.97
2019-03-10T07:09:13.202Z,12.04
2019-03-10T07:11:43.075Z,12.18
2019-03-10T07:14:12.777Z,12.30
2019-03-10T07:16:43.973Z,12.41
2019-03-10T07:19:13.743Z,12.58
2019-03-10T07:21:43.544Z,12.55
2019-03-10T07:24:13.531Z,12.54
2019-03-10T07:26:43.396Z,12.68
2019-03-10T07:29:18.464Z,12.71
2019-03-10T07:32:00.148Z,12.85
2019-03-10T07:34:40.172Z,13.15
2019-03-10T07:37:40.725Z,13.36
2019-03-10T07:40:20.618Z,13.41
2019-03-10T07:43:00.396Z,13.48
2019-03-10T07:45:49.116Z,13.63
2019-03-10T07:48:43.961Z,13.72
2019-03-10T07:51:38.560Z,13.65
2019-03-10T07:54:16.827Z,13.93
2019-03-10T07:57:11.387Z,14.13
2019-03-10T08:00:18.512Z,14.16
2019-03-10T08:03:11.411Z,14.33
2019-03-10T08:06:00.044Z,14.52
2019-03-10T08:08:44.899Z,14.94
2019-03-10T08:11:19.193Z,15.20
2019-03-10T08:14:03.540Z,15.04
2019-03-10T08:17:07.592Z,15.29
2019-03-10T08:19:56.454Z,15.40
2019-03-10T08:22:47.087Z,15.55
2019-03-10T08:25:29.158Z,15.54
2019-03-10T08:28:06.571Z,15.95
2019-03-10T08:30:59.691Z,16.07
2019-03-10T08:33:41.533Z,16.41
2019-03-10T08:36:33.178Z,16.35
2019-03-10T08:39:28.057Z,16.46
2019-03-10T08:42:20.563Z,16.37
2019-03-10T08:45:13.353Z,16.52
2019-03-10T08:48:02.066Z,16.39
2019-03-10T08:50:59.816Z,16.37
2019-03-10T08:53:52.674Z,16.55
2019-03-10T08:56:44.067Z,16.75
2019-03-10T08:59:35.869Z,16.63
2019-03-10T09:02:42.754Z,16.79
2019-03-10T09:05:34.105Z,16.75
2019-03-10T09:08:20.445Z,16.56
2019-03-10T09:11:15.289Z,16.39
2019-03-10T09:13:52.875Z,16.29
2019-03-10T09:16:28.750Z,16.15
2019-03-10T09:19:17.477Z,16.25
2019-03-10T09:22:12.196Z,16.30
2019-03-10T09:24:59.661Z,16.62
2019-03-10T09:27:44.182Z,16.75
2019-03-10T09:30:39.093Z,16.65
2019-03-10T09:33:30.661Z,16.94
2019-03-10T09:36:28.283Z,17.10
2019-03-10T09:39:10.862Z,16.98
2019-03-10T09:42:05.785Z,17.13
2019-03-10T09:44:54.501Z,16.91
2019-03-10T09:47:43.148Z,16.91
2019-03-10T09:50:27.067Z,16.75
2019-03-10T09:53:15.681Z,16.78
2019-03-10T09:56:14.716Z,16.83
2019-03-10T09:58:50.211Z,16.96
2019-03-10T10:01:37.827Z,17.02
2019-03-10T10:04:35.855Z,17.02
2019-03-10T10:07:31.093Z,16.90
2019-03-10T10:10:19.354Z,17.13
2019-03-10T10:13:01.725Z,17.14
2019-03-10T10:15:43.333Z,17.20
2019-03-10T10:18:38.408Z,17.21
2019-03-10T10:21:33.426Z,17.38
2019-03-10T10:24:24.886Z,17.85
2019-03-10T10:27:04.044Z,17.90
2019-03-10T10:29:42.974Z,18.28
2019-03-10T10:32:20.933Z,18.54
2019-03-10T10:35:12.645Z,18.37
2019-03-10T10:38:18.288Z,18.73
2019-03-10T10:41:07.560Z,18.75
2019-03-10T10:44:05.129Z,18.79
2019-03-10T10:46:50.716Z,18.76
2019-03-10T10:49:42.713Z,18.76
2019-03-10T10:52:30.126Z,18.88
2019-03-10T10:55:16.292Z,18.84
2019-03-10T10:58:01.670Z,19.06
2019-03-10T11:01:07.104Z,19.11
2019-03-10T11:03:48.726Z,19.18
2019-03-10T11:06:33.317Z,19.01
2019-03-10T11:09:14.932Z,19.14
2019-03-10T11:12:03.607Z,19.22
2019-03-10T11:14:59.751Z,19.32
2019-03-10T11:17:44.218Z,19.55
2019-03-10T11:20:24.058Z,19.51
2019-03-10T11:23:11.434Z,19.63
2019-03-10T11:25:51.545Z,19.70
2019-03-10T11:28:40.137Z,19.65
2019-03-10T11:31:38.000Z,20.08
2019-03-10T11:34:29.875Z,19.98
2019-03-10T11:37:27.863Z,19.98
2019-03-10T11:40:13.101Z,19.88
2019-03-10T11:42:57.052Z,19.76
2019-03-10T11:45:45.637Z,19.78
2019-03-10T11:48:28.365Z,20.03
2019-03-10T11:51:17.283Z,19.96
2019-03-10T11:54:00.056Z,20.03
2019-03-10T11:56:47.781Z,20.14
2019-03-10T11:59:24.962Z,20.03
2019-03-10T12:02:16.792Z,20.10
2019-03-10T12:05:10.175Z,20.23
2019-03-10T12:07:58.952Z,20.25
2019-03-10T12:10:28.793Z,20.05
2019-03-10T12:12:58.717Z,19.87
2019-03-10T12:15:28.346Z,20.08
2019-03-10T12:17:58.255Z,20.48
2019-03-10T12:20:29.324Z,20.61
2019-03-10T12:22:59.119Z,20.30
2019-03-10T12:25:29.058Z,20.46
2019-03-10T12:27:58.925Z,20.42
2019-03-10T12:30:28.891Z,20.57
2019-03-10T12:32:58.714Z,20.48
2019-03-10T12:35:34.399Z,20.33
2019-03-10T12:38:00.152Z,20.61
2019-03-10T12:40:30.076Z,20.55
2019-03-10T12:42:59.935Z,20.60
2019-03-10T12:45:29.605Z,20.58
2019-03-10T12:47:59.428Z,20.58
2019-03-10T12:50:29.289Z,20.58
2019-03-10T12:52:58.996Z,20.40
2019-03-10T12:55:28.770Z,20.83
2019-03-10T12:57:58.830Z,20.84
2019-03-10T13:00:28.822Z,20.64
2019-03-10T13:02:58.609Z,20.69
2019-03-10T13:05:28.511Z,20.76
2019-03-10T13:07:58.353Z,20.71
2019-03-10T13:10:28.274Z,20.86
2019-03-10T13:12:58.029Z,20.96
2019-03-10T13:15:27.894Z,20.94
2019-03-10T13:17:57.803Z,20.82
2019-03-10T13:20:28.963Z,20.71
2019-03-10T13:22:58.967Z,20.88
2019-03-10T13:25:28.676Z,20.73
2019-03-10T13:27:58.873Z,20.85
2019-03-10T13:30:29.035Z,20.70
2019-03-10T13:32:58.962Z,20.90
2019-03-10T13:35:28.765Z,21.37
2019-03-10T13:37:58.732Z,21.88
2019-03-10T13:40:28.616Z,22.41
2019-03-10T13:42:58.521Z,22.34
2019-03-10T13:45:28.611Z,22.57
2019-03-10T13:47:58.432Z,23.14
2019-03-10T13:50:28.298Z,22.75
2019-03-10T13:52:58.170Z,22.66
2019-03-10T13:55:27.996Z,22.50
2019-03-10T13:57:57.857Z,22.82
2019-03-10T14:00:27.865Z,22.82
2019-03-10T14:02:57.762Z,23.03
2019-03-10T14:05:27.514Z,23.17
2019-03-10T14:07:57.414Z,22.79
2019-03-10T14:10:27.407Z,22.79
2019-03-10T14:12:57.361Z,22.80
2019-03-10T14:15:27.236Z,22.98
2019-03-10T14:17:57.209Z,23.12
2019-03-10T14:20:27.050Z,22.76
2019-03-10T14:22:56.762Z,23.11
2019-03-10T14:25:28.093Z,22.36
2019-03-10T14:27:58.055Z,22.36
2019-03-10T14:30:28.026Z,22.38
2019-03-10T14:32:57.705Z,22.30
2019-03-10T14:35:27.662Z,22.39
2019-03-10T14:37:57.586Z,22.63
2019-03-10T14:40:27.522Z,22.55
2019-03-10T14:42:57.324Z,22.22
2019-03-10T14:45:28.406Z,22.66
2019-03-10T14:47:58.201Z,22.91
2019-03-10T14:50:28.220Z,22.89
2019-03-10T14:52:59.298Z,23.12
2019-03-10T14:55:29.185Z,22.98
2019-03-10T14:57:59.069Z,23.23
2019-03-10T15:00:30.242Z,23.51
2019-03-10T15:03:00.056Z,23.43
2019-03-10T15:05:29.875Z,22.76
2019-03-10T15:07:59.844Z,22.56
2019-03-10T15:10:29.813Z,22.11
2019-03-10T15:12:59.624Z,22.21
2019-03-10T15:15:30.903Z,22.10
2019-03-10T15:18:02.836Z,22.35
2019-03-10T15:20:32.234Z,22.35
2019-03-10T15:23:02.302Z,22.00
2019-03-10T15:25:32.122Z,21.74
2019-03-10T15:28:01.998Z,21.74
2019-03-10T15:30:32.824Z,21.52
2019-03-10T15:33:03.937Z,21.86
2019-03-10T15:35:33.572Z,21.70
2019-03-10T15:38:03.482Z,21.44
2019-03-10T15:40:34.773Z,21.49
2019-03-10T15:43:04.536Z,21.69
2019-03-10T15:45:34.282Z,21.66
2019-03-10T15:48:04.343Z,21.23
2019-03-10T15:50:34.183Z,21.32
2019-03-10T15:53:04.008Z,20.43
2019-03-10T15:55:35.075Z,20.43
2019-03-10T15:58:04.971Z,20.01
2019-03-10T16:00:34.778Z,19.77
2019-03-10T16:03:05.929Z,19.62
2019-03-10T16:05:35.734Z,19.44
2019-03-10T16:08:05.464Z,19.28
2019-03-10T16:10:35.297Z,19.05
2019-03-10T16:13:05.225Z,19.01
2019-03-10T16:15:35.091Z,18.85
2019-03-10T16:18:05.063Z,18.67
2019-03-10T16:20:34.933Z,18.55
2019-03-10T16:23:04.856Z,18.35
2019-03-10T16:25:34.774Z,18.33
2019-03-10T16:28:04.876Z,18.24
2019-03-10T16:30:34.605Z,18.14
2019-03-10T16:33:04.623Z,18.12
2019-03-10T16:35:34.336Z,18.03
2019-03-10T16:38:04.149Z,17.98
2019-03-10T16:40:35.302Z,17.92
2019-03-10T16:43:05.125Z,17.90
2019-03-10T16:45:35.040Z,17.96
2019-03-10T16:48:06.475Z,17.81
2019-03-10T16:50:36.288Z,17.75
2019-03-10T16:53:06.222Z,17.58
2019-03-10T16:55:37.305Z,17.47
2019-03-10T16:58:07.063Z,17.42
2019-03-10T17:00:37.009Z,17.25
2019-03-10T17:03:06.896Z,17.16
2019-03-10T17:05:36.640Z,17.06
2019-03-10T17:08:06.583Z,16.98
2019-03-10T17:10:36.466Z,17.00
2019-03-10T17:13:06.378Z,16.92
2019-03-10T17:15:36.237Z,16.91
2019-03-10T17:18:06.205Z,16.93
2019-03-10T17:20:36.025Z,16.91
2019-03-10T17:23:05.987Z,16.79
2019-03-10T17:25:35.857Z,16.87
2019-03-10T17:28:05.849Z,16.93
2019-03-10T17:30:35.614Z,16.97
2019-03-10T17:33:05.401Z,16.89
2019-03-10T17:35:35.268Z,16.79
2019-03-10T17:38:05.001Z,16.71
2019-03-10T17:40:34.625Z,16.58
2019-03-10T17:43:07.877Z,16.46
2019-03-10T17:45:38.499Z,16.32
2019-03-10T17:48:08.279Z,16.20
2019-03-10T17:50:38.003Z,16.12
2019-03-10T17:53:07.895Z,16.14
2019-03-10T17:55:37.830Z,16.17
2019-03-10T17:58:07.628Z,16.18
2019-03-10T18:00:37.663Z,16.22
2019-03-10T18:03:07.487Z,16.38
2019-03-10T18:05:37.500Z,16.44
2019-03-10T18:08:08.623Z,16.56
2019-03-10T18:10:38.482Z,16.58
2019-03-10T18:13:08.190Z,16.49
2019-03-10T18:15:38.174Z,16.46
2019-03-10T18:18:08.082Z,16.44
2019-03-10T18:20:39.263Z,16.36
2019-03-10T18:23:08.946Z,16.33
2019-03-10T18:25:38.757Z,16.30
2019-03-10T18:28:09.931Z,16.24
2019-03-10T18:30:39.719Z,16.18
2019-03-10T18:33:09.428Z,16.08
2019-03-10T18:35:39.306Z,15.96
2019-03-10T18:38:09.173Z,15.90
2019-03-10T18:40:39.088Z,15.85
2019-03-10T18:43:09.274Z,15.80
2019-03-10T18:45:39.144Z,15.84
2019-03-10T18:48:09.046Z,15.72
2019-03-10T18:50:41.422Z,15.68
2019-03-10T18:53:11.361Z,15.71
2019-03-10T18:55:41.273Z,15.62
2019-03-10T18:58:11.245Z,15.65
2019-03-10T19:00:42.456Z,15.60
2019-03-10T19:03:12.243Z,15.46
2019-03-10T19:05:42.060Z,15.44
2019-03-10T19:08:13.042Z,15.48
2019-03-10T19:10:42.812Z,15.47
2019-03-10T19:13:12.731Z,15.43
2019-03-10T19:15:42.700Z,15.42
2019-03-10T19:18:12.467Z,15.39
2019-03-10T19:20:42.158Z,15.35
2019-03-10T19:23:13.222Z,15.29
2019-03-10T19:25:43.030Z,15.13
2019-03-10T19:28:12.966Z,15.03
2019-03-10T19:30:42.936Z,14.89
2019-03-10T19:33:12.669Z,14.81
2019-03-10T19:35:42.707Z,14.68
2019-03-10T19:38:12.670Z,14.64
2019-03-10T19:40:42.524Z,14.74
2019-03-10T19:43:12.428Z,14.71
2019-03-10T19:45:42.065Z,14.93
2019-03-10T19:48:13.110Z,15.04
2019-03-10T19:50:42.919Z,15.04
2019-03-10T19:53:12.823Z,14.99
2019-03-10T19:55:42.583Z,14.93
2019-03-10T19:58:12.457Z,14.93
2019-03-10T20:00:42.434Z,14.99
2019-03-10T20:03:12.194Z,15.04
2019-03-10T20:05:42.020Z,15.09
2019-03-10T20:08:12.064Z,15.08
2019-03-10T20:10:41.934Z,15.00
2019-03-10T20:13:11.682Z,14.13
2019-03-10T20:15:41.479Z,13.47
2019-03-10T20:18:11.478Z,13.44
2019-03-10T20:20:42.542Z,13.46
2019-03-10T20:23:12.337Z,13.48
2019-03-10T20:25:42.043Z,13.33
2019-03-10T20:28:13.126Z,13.23
2019-03-10T20:30:42.905Z,13.24
2019-03-10T20:33:12.626Z,13.20
2019-03-10T20:35:44.679Z,13.17
2019-03-10T20:38:14.722Z,13.02
2019-03-10T20:40:44.434Z,12.97
2019-03-10T20:43:14.303Z,13.04
2019-03-10T20:45:44.268Z,13.00
2019-03-10T20:48:14.059Z,12.93
2019-03-10T20:50:44.019Z,12.88
2019-03-10T20:53:13.912Z,12.82
2019-03-10T20:55:43.715Z,12.83
2019-03-10T20:58:13.448Z,12.61
2019-03-10T21:00:43.255Z,12.52
2019-03-10T21:03:14.398Z,12.53
2019-03-10T21:05:44.208Z,12.62
2019-03-10T21:08:14.138Z,12.46
2019-03-10T21:10:43.962Z,12.33
2019-03-10T21:13:13.758Z,12.46
2019-03-10T21:15:43.459Z,12.46
2019-03-10T21:18:13.311Z,12.38
2019-03-10T21:20:43.097Z,12.26
2019-03-10T21:23:12.904Z,12.29
2019-03-10T21:25:42.786Z,12.30
2019-03-10T21:28:12.526Z,12.12
2019-03-10T21:30:42.563Z,12.27
2019-03-10T21:33:12.412Z,12.50
2019-03-10T21:35:42.279Z,12.49
2019-03-10T21:38:12.082Z,12.60
2019-03-10T21:40:42.037Z,12.68
2019-03-10T21:43:11.851Z,12.60
2019-03-10T21:45:41.702Z,12.63
2019-03-10T21:48:11.468Z,12.54
2019-03-10T21:50:41.408Z,12.16
2019-03-10T21:53:11.305Z,11.97
2019-03-10T21:55:41.208Z,11.88
2019-03-10T21:58:10.997Z,11.85
2019-03-10T22:00:40.739Z,11.87
2019-03-10T22:03:10.466Z,11.79
2019-03-10T22:05:40.307Z,11.75
2019-03-10T22:08:10.171Z,11.74
2019-03-10T22:10:40.140Z,11.71
2019-03-10T22:13:09.950Z,11.73
2019-03-10T22:15:41.904Z,11.76
2019-03-10T22:18:11.191Z,11.84
2019-03-10T22:20:41.048Z,11.81
2019-03-10T22:23:10.818Z,11.81
2019-03-10T22:25:40.615Z,11.83
2019-03-10T22:28:11.913Z,11.73
2019-03-10T22:30:41.773Z,11.76
2019-03-10T22:33:11.714Z,11.80
2019-03-10T22:35:41.651Z,11.77
2019-03-10T22:38:11.434Z,11.75
2019-03-10T22:40:41.277Z,11.71
2019-03-10T22:43:11.195Z,11.67
2019-03-10T22:45:40.980Z,11.64
2019-03-10T22:48:10.933Z,11.62
2019-03-10T22:50:40.701Z,11.55
2019-03-10T22:53:11.435Z,11.52
2019-03-10T22:55:41.397Z,11.47
2019-03-10T22:58:11.283Z,11.38
2019-03-10T23:01:06.135Z,11.39
2019-03-10T23:03:36.001Z,11.46
2019-03-10T23:06:05.950Z,11.47
2019-03-10T23:08:36.002Z,11.62
2019-03-10T23:11:08.375Z,11.63
2019-03-10T23:13:37.383Z,11.58
2019-03-10T23:16:07.250Z,11.52
2019-03-10T23:18:37.124Z,11.43
2019-03-10T23:21:07.059Z,11.35
2019-03-10T23:23:36.972Z,11.24
2019-03-10T23:26:06.900Z,11.29
2019-03-10T23:28:36.865Z,11.29
2019-03-10T23:31:06.732Z,11.27
2019-03-10T23:33:36.622Z,11.42
2019-03-10T23:36:06.692Z,11.68
2019-03-10T23:38:36.473Z,11.66
2019-03-10T23:41:06.197Z,11.66
2019-03-10T23:43:36.029Z,11.61
2019-03-10T23:46:05.699Z,11.55
2019-03-10T23:48:35.625Z,11.68
2019-03-10T23:51:05.480Z,11.81
2019-03-10T23:53:35.483Z,11.85
2019-03-10T23:56:05.309Z,11.77
2019-03-10T23:58:35.079Z,11.74
